Hlavní strana
METAR-TAF:

METAR-TAF

Letiště :

Pointe-Noire, Kongo

zeměpisná šířka: 04-49S, zeměpisná délka: 011-54E, výška: 17 m

Aktuální stav počasí

Zpráva byla vytvořena před 37 minutami, v 09:00 UTC
Východoseverovýchodní vítr 4 kt
Teplota 26°C
Vlhkost vzduchu 84%
Tlak 1011 hPa
Viditelnost: 8000 m
Skoro jasno ve výšce 1300 ft

METAR: FCPP 240900Z 06004KT 8000 FEW013 26/23 Q1011 NOSIG

Čas: 10:37 (09:37 UTC)

Předpověď počasí

Zpráva byla vytvořena před 4 hodinami a 37 minutami, v 05:00 UTC
Předpověď platná od 24 v 06 UTC do 25 v 06 UTC
Jihojihozápadní vítr 6 kt
Viditelnost: 8000 m
Polojasno ve výšce 1300 ft
Oblačno až skoro zataženo ve výšce 2300 ft
Pravděpodobnost 30%
od 24 v 16 UTC do 24 v 20 UTC
Polojasno ve výšce 1400 ft
Skoro jasno ve výšce 3000 ft, Cumulonimbus.

TAF: FCPP 240500Z 2406/2506 20006KT 8000 SCT013 BKN023 PROB30 2416/2420 SCT014 FEW030CB

Stav a předpovědi počasí z více než 4 000 letišť (zprávy METAR a TAF).

Červené a žluté tečky na mapě představují dostupné meteorologické stanice.

Když kurzor umístíte na tečku, zobrazí se název stanice.

Pak kliknutím zobrazíte stav a předpověď počasí.

Chcete-li změnit mapu, kliknutím na zelené tlačítko se znaménkem +mapu přiblížíte, kliknutím na zelené tlačítko se znaménkem – mapu oddálíte a kliknutím na zelené šipky přejdete na sousední mapy.


METAR-TAF: